Kea — 9HA2207 — position and weather

sailwx.info

Track history (hours):
 
Tides and Currents Weather Stations Pressure Air Temp Water Temp Dewpoint Dewpoint Depression Visibility Wind Speed Wind Dir Waves Ship Positions

Kea

Last reported at 2017-Jul-29 07:50 UTC. Time now 2017-Aug-18 20:17 UTC.
Position N 01°15' E 104°02'.
Warning: this ship's position is 20 days out of date.

Length 225 m; draft 13 m.

Type: Cargo ship. MMSI: 248150000.

Date/timePositionNaut miles runAvg speedWind from/ knotsBaromVisibWave heightAir tempDewpointWater temp
2017-Jul-29 07:50N 01°15' E 104°02'3 8.2
2017-Jul-29 07:30N 01°17' E 104°00'0 0.1
2017-Jul-29 05:07N 01°17' E 104°00'0 0.0
2017-Jul-29 04:49N 01°17' E 104°00'0 0.1
2017-Jul-29 04:04N 01°17' E 104°00'0 0.2
2017-Jul-29 03:52N 01°17' E 104°00'0 0.0
2017-Jul-29 00:40N 01°17' E 104°00'0 0.0
2017-Jul-28 18:13N 01°17' E 103°60'0 0.0
2017-Jul-28 17:55N 01°17' E 103°60'0 0.0
2017-Jul-28 17:28N 01°17' E 103°60'0 0.0
2017-Jul-28 16:22N 01°17' E 103°60'1 1.8
2017-Jul-28 16:00N 01°17' E 103°59'3 5.2
2017-Jul-28 15:30N 01°16' E 103°57'2 3.1
2017-Jul-28 15:01N 01°15' E 103°58'3 5.6
2017-Jul-28 14:30N 01°14' E 103°56'4 8.2
2017-Jul-28 13:59N 01°12' E 103°52'510.3
2017-Jul-28 13:30N 01°10' E 103°48'611.1
2017-Jul-28 13:00N 01°06' E 103°44'611.1
2017-Jul-28 12:30N 01°02' E 103°39'610.9
2017-Jul-28 11:59N 01°05' E 103°35'511.0
2017-Jul-28 11:30N 01°08' E 103°30'611.4
2017-Jul-28 10:59N 01°11' E 103°25'  
Track history (hours):
 
Tides and Currents Weather Stations Pressure Air Temp Water Temp Dewpoint Dewpoint Depression Visibility Wind Speed Wind Dir Waves Ship Positions

Kea

Last reported at 2017-Jul-29 07:50 UTC. Time now 2017-Aug-18 20:17 UTC.
Position N 01°15' E 104°02'.
Warning: this ship's position is 20 days out of date.

Length 225 m; draft 13 m.

Type: Cargo ship. MMSI: 248150000.

Date/timePositionNaut miles runAvg speedWind from/ knotsBaromVisibWave heightAir tempDewpointWater temp
2017-Jul-29 07:50N 01°15' E 104°02'3 8.2
2017-Jul-29 07:30N 01°17' E 104°00'0 0.1
2017-Jul-29 05:07N 01°17' E 104°00'0 0.0
2017-Jul-29 04:49N 01°17' E 104°00'0 0.1
2017-Jul-29 04:04N 01°17' E 104°00'0 0.2
2017-Jul-29 03:52N 01°17' E 104°00'0 0.0
2017-Jul-29 00:40N 01°17' E 104°00'0 0.0
2017-Jul-28 18:13N 01°17' E 103°60'0 0.0
2017-Jul-28 17:55N 01°17' E 103°60'0 0.0
2017-Jul-28 17:28N 01°17' E 103°60'0 0.0
2017-Jul-28 16:22N 01°17' E 103°60'1 1.8
2017-Jul-28 16:00N 01°17' E 103°59'3 5.2
2017-Jul-28 15:30N 01°16' E 103°57'2 3.1
2017-Jul-28 15:01N 01°15' E 103°58'3 5.6
2017-Jul-28 14:30N 01°14' E 103°56'4 8.2
2017-Jul-28 13:59N 01°12' E 103°52'510.3
2017-Jul-28 13:30N 01°10' E 103°48'611.1
2017-Jul-28 13:00N 01°06' E 103°44'611.1
2017-Jul-28 12:30N 01°02' E 103°39'610.9
2017-Jul-28 11:59N 01°05' E 103°35'511.0
2017-Jul-28 11:30N 01°08' E 103°30'611.4
2017-Jul-28 10:59N 01°11' E 103°25'  

Dump ship's entire track history